Terminal Aerodrome Forecast
Issued by NWS

Home | Current Version | Previous Version | Text Only | Print | Product List | Glossary On
Versions: 1 2 3 4 5 6 7 8 9 10 11 12 13 14 15 16 17
000
FTUS44 KLZK 221141
TAFBPK
TAF
KBPK 221141Z 2212/2312 13005KT P6SM SCT007 OVC012
      TEMPO 2212/2215 5SM BR BKN007
     FM221500 13006KT P6SM OVC015
     FM221900 14007KT P6SM VCSH SCT020 BKN050
     FM230100 13005KT P6SM VCSH SCT005 OVC020
     FM230800 VRB03KT 4SM BR OVC005=

USA.gov is the U.S. government's official web portal to all federal, state and local government web resources and services.